Time;durP1;ratioP1;P1;durP2;ratioP2;P2;SDS_P1;SDS_P2;PMS_P1;PMS_P2;Temp;Humidity;BMP_temperature;BMP_pressure;BME280_temperature;BME280_humidity;BME280_pressure;Samples;Min_cycle;Max_cycle;Signal;HPM_P1;HPM_P2
2022/11/10 00:00:01;;;;;;;1.40;1.30;;;9.50;99.90;;;;;;5064610;28;20171;-59
2022/11/10 00:02:27;;;;;;;2.70;1.53;;;9.50;99.90;;;;;;5066729;28;20171;-59
2022/11/10 00:04:52;;;;;;;1.00;1.00;;;9.50;99.90;;;;;;5065999;28;20680;-60
2022/11/10 00:07:18;;;;;;;2.10;1.30;;;9.50;99.90;;;;;;5067896;28;20237;-58
2022/11/10 00:09:43;;;;;;;1.27;1.10;;;9.50;99.90;;;;;;5059543;28;20644;-58
2022/11/10 00:12:09;;;;;;;6.53;1.67;;;9.40;99.90;;;;;;5049414;28;20177;-58
2022/11/10 00:17:19;;;;;;;1.73;1.10;;;9.40;99.90;;;;;;5063537;28;20197;-60
2022/11/10 00:19:44;;;;;;;1.37;1.17;;;9.40;99.90;;;;;;5057281;28;20863;-59
2022/11/10 00:22:10;;;;;;;1.47;1.20;;;9.40;99.90;;;;;;5069548;28;20162;-58
2022/11/10 00:24:35;;;;;;;2.60;1.37;;;9.40;99.90;;;;;;5070567;28;20166;-58
2022/11/10 00:27:01;;;;;;;1.97;1.20;;;9.40;99.90;;;;;;5069931;28;20664;-59
2022/11/10 00:29:26;;;;;;;3.37;1.20;;;9.40;99.90;;;;;;5062107;28;20224;-59
2022/11/10 00:31:52;;;;;;;2.13;1.40;;;9.30;99.90;;;;;;5064033;28;20178;-59
2022/11/10 00:34:18;;;;;;;2.90;1.30;;;9.30;99.90;;;;;;5052881;28;20265;-59
2022/11/10 00:36:43;;;;;;;1.20;1.10;;;9.30;99.90;;;;;;5051950;28;20634;-59
2022/11/10 00:39:10;;;;;;;1.90;1.37;;;9.30;99.90;;;;;;5061549;28;20185;-59
2022/11/10 00:41:35;;;;;;;2.90;1.20;;;9.20;99.90;;;;;;5068857;28;20175;-59
2022/11/10 00:44:01;;;;;;;1.20;1.10;;;9.20;99.90;;;;;;5056334;28;20418;-60
2022/11/10 00:46:27;;;;;;;2.10;1.60;;;9.30;99.90;;;;;;5065976;28;20175;-60
2022/11/10 00:48:52;;;;;;;5.67;1.40;;;9.20;99.90;;;;;;5069674;28;20739;-58
2022/11/10 00:51:24;;;;;;;2.30;1.30;;;9.20;99.90;;;;;;5065025;28;20269;-60
2022/11/10 00:53:50;;;;;;;1.40;1.30;;;9.20;99.90;;;;;;5061812;28;20203;-60
2022/11/10 00:56:16;;;;;;;1.70;1.60;;;9.20;99.90;;;;;;5061862;28;21048;-59
2022/11/10 00:58:42;;;;;;;3.03;1.83;;;9.20;99.90;;;;;;5062687;28;20449;-59
2022/11/10 01:01:09;;;;;;;2.20;1.27;;;9.20;99.90;;;;;;5063550;28;20170;-58
2022/11/10 01:03:35;;;;;;;1.67;1.10;;;9.20;99.90;;;;;;5065996;28;20428;-58
2022/11/10 01:06:20;;;;;;;3.40;1.30;;;9.20;99.90;;;;;;5061661;28;20437;-59
2022/11/10 01:08:46;;;;;;;2.83;1.60;;;9.20;99.90;;;;;;5065591;28;20453;-59
2022/11/10 01:11:22;;;;;;;1.50;1.40;;;9.20;99.90;;;;;;5062787;28;20482;-58
2022/11/10 01:13:50;;;;;;;4.90;1.50;;;9.20;99.90;;;;;;5060697;28;20433;-58
2022/11/10 01:16:36;;;;;;;3.07;1.77;;;9.20;99.90;;;;;;5057374;28;20834;-59
2022/11/10 01:19:02;;;;;;;1.93;1.80;;;9.20;99.90;;;;;;5062313;28;20426;-60
2022/11/10 01:21:29;;;;;;;2.30;1.70;;;9.20;99.90;;;;;;5059550;28;20405;-59
2022/11/10 01:23:55;;;;;;;3.10;1.37;;;9.20;99.90;;;;;;5067738;28;20421;-59
2022/11/10 01:26:21;;;;;;;1.77;1.30;;;9.20;99.90;;;;;;5041408;28;20425;-60
2022/11/10 01:28:47;;;;;;;4.40;1.70;;;9.20;99.90;;;;;;5060591;28;20473;-59
2022/11/10 01:31:16;;;;;;;2.63;1.63;;;9.20;99.90;;;;;;5068449;28;20455;-59
2022/11/10 01:33:42;;;;;;;1.50;1.40;;;9.20;99.90;;;;;;5070213;28;20462;-61
2022/11/10 01:36:09;;;;;;;3.13;1.50;;;9.10;99.90;;;;;;5063200;28;20491;-60
2022/11/10 01:38:37;;;;;;;5.40;1.90;;;9.10;99.90;;;;;;5052281;28;20196;-60
2022/11/10 01:41:04;;;;;;;1.47;1.37;;;9.10;99.90;;;;;;5063476;28;20965;-60
2022/11/10 01:43:30;;;;;;;3.23;1.40;;;9.00;99.90;;;;;;5064009;28;20413;-60
2022/11/10 01:46:11;;;;;;;3.13;1.63;;;9.00;99.90;;;;;;5059891;28;20819;-62
2022/11/10 01:48:45;;;;;;;1.63;1.53;;;8.90;99.90;;;;;;5063699;28;20243;-58
2022/11/10 01:51:22;;;;;;;5.27;1.40;;;8.90;99.90;;;;;;5043147;28;20488;-58
2022/11/10 01:54:17;;;;;;;2.03;1.40;;;8.80;99.90;;;;;;5057762;28;20433;-60
2022/11/10 01:56:47;;;;;;;2.73;1.50;;;8.70;99.90;;;;;;5061413;28;20483;-59
2022/11/10 01:59:17;;;;;;;1.50;1.37;;;8.70;99.90;;;;;;5060116;28;20512;-60
2022/11/10 02:01:46;;;;;;;3.23;1.47;;;8.60;99.90;;;;;;5057707;28;20513;-59
2022/11/10 02:04:15;;;;;;;4.00;2.10;;;8.50;99.90;;;;;;5064033;28;20454;-59
2022/11/10 02:06:42;;;;;;;2.23;1.70;;;8.40;99.90;;;;;;5049038;28;20811;-60
2022/11/10 02:09:08;;;;;;;3.20;1.83;;;8.40;99.90;;;;;;5064168;28;20432;-60
2022/11/10 02:11:35;;;;;;;2.83;1.70;;;8.30;99.90;;;;;;5059919;28;20417;-60
2022/11/10 02:14:01;;;;;;;2.77;1.90;;;8.30;99.90;;;;;;5065701;28;20170;-59
2022/11/10 02:16:27;;;;;;;1.90;1.57;;;8.30;99.90;;;;;;5057542;28;20460;-59
2022/11/10 02:18:53;;;;;;;2.70;1.97;;;8.20;99.90;;;;;;5061091;28;20452;-60
2022/11/10 02:21:20;;;;;;;3.00;1.60;;;8.20;99.90;;;;;;5063703;28;20463;-63
2022/11/10 02:23:53;;;;;;;2.73;2.10;;;8.20;99.90;;;;;;5060945;28;20245;-60
2022/11/10 02:26:26;;;;;;;3.47;1.63;;;8.10;99.90;;;;;;5059463;28;20434;-59
2022/11/10 02:28:52;;;;;;;1.97;1.70;;;8.00;99.90;;;;;;5060880;28;20520;-60
2022/11/10 02:31:18;;;;;;;2.60;1.60;;;8.00;99.90;;;;;;5065456;28;20507;-59
2022/11/10 02:33:43;;;;;;;4.53;2.17;;;7.90;99.90;;;;;;5059559;28;20206;-60
2022/11/10 02:36:09;;;;;;;2.33;1.83;;;7.80;99.90;;;;;;5064104;28;20293;-59
2022/11/10 02:38:35;;;;;;;8.83;2.10;;;7.80;99.90;;;;;;5065209;28;20222;-59
2022/11/10 02:41:01;;;;;;;4.60;1.90;;;7.80;99.90;;;;;;5069171;28;20959;-60
2022/11/10 02:43:27;;;;;;;1.90;1.80;;;7.70;99.90;;;;;;5067504;28;20519;-58
2022/11/10 02:45:52;;;;;;;4.07;2.03;;;7.70;99.90;;;;;;5066938;28;20171;-58
2022/11/10 02:48:19;;;;;;;2.77;1.80;;;7.60;99.90;;;;;;5068383;28;21163;-58
2022/11/10 02:50:44;;;;;;;3.30;2.10;;;7.60;99.90;;;;;;5048329;28;20186;-60
2022/11/10 02:53:10;;;;;;;3.40;1.87;;;7.50;99.90;;;;;;5064795;28;20429;-59
2022/11/10 02:55:36;;;;;;;6.13;2.23;;;7.50;99.90;;;;;;5064845;28;20684;-60
2022/11/10 02:58:01;;;;;;;4.90;1.97;;;7.40;99.90;;;;;;5062349;28;20289;-60
2022/11/10 03:00:27;;;;;;;11.30;2.00;;;7.40;99.90;;;;;;5063265;28;20171;-59
2022/11/10 03:03:03;;;;;;;2.70;1.90;;;7.30;99.90;;;;;;5065058;28;20222;-57
2022/11/10 03:05:30;;;;;;;3.10;1.90;;;7.30;99.90;;;;;;5066580;28;20170;-58
2022/11/10 03:07:58;;;;;;;3.13;1.93;;;7.30;99.90;;;;;;5065518;28;20659;-59
2022/11/10 03:10:24;;;;;;;7.43;2.00;;;7.20;99.90;;;;;;5067574;28;20436;-58
2022/11/10 03:12:53;;;;;;;2.53;2.33;;;7.20;99.90;;;;;;5070860;28;20925;-58
2022/11/10 03:15:19;;;;;;;3.60;1.77;;;7.20;99.90;;;;;;5072031;28;20483;-58
2022/11/10 03:17:44;;;;;;;2.80;2.03;;;7.20;99.90;;;;;;5060046;28;20496;-61
2022/11/10 03:20:10;;;;;;;2.57;2.10;;;7.10;99.90;;;;;;5064724;28;20665;-60
2022/11/10 03:22:36;;;;;;;2.80;2.13;;;7.10;99.90;;;;;;5052650;28;20167;-59
2022/11/10 03:25:02;;;;;;;5.57;2.37;;;7.00;99.90;;;;;;5062835;28;20199;-58
2022/11/10 03:27:27;;;;;;;3.80;1.90;;;7.00;99.90;;;;;;5065691;28;20209;-60
2022/11/10 03:29:53;;;;;;;2.87;2.50;;;6.90;99.90;;;;;;5065085;28;20934;-58
2022/11/10 03:32:18;;;;;;;9.93;2.50;;;6.90;99.90;;;;;;5064086;28;20185;-59
2022/11/10 03:34:44;;;;;;;2.73;2.53;;;6.90;99.90;;;;;;5068549;28;20256;-59
2022/11/10 03:37:10;;;;;;;10.43;2.30;;;6.90;99.90;;;;;;5066212;28;20195;-59
2022/11/10 03:39:35;;;;;;;11.43;2.53;;;6.90;99.90;;;;;;5063914;28;20181;-60
2022/11/10 03:42:01;;;;;;;6.53;2.70;;;6.90;99.90;;;;;;5066524;28;20556;-60
2022/11/10 03:44:26;;;;;;;25.73;3.20;;;6.90;99.90;;;;;;5060870;28;20258;-59
2022/11/10 03:46:52;;;;;;;16.80;2.70;;;7.00;99.90;;;;;;5056538;28;20680;-59
2022/11/10 03:49:17;;;;;;;12.50;3.23;;;7.00;99.90;;;;;;5058759;28;20175;-57
2022/11/10 03:51:43;;;;;;;25.53;2.77;;;7.00;99.90;;;;;;5065746;28;20182;-59
2022/11/10 03:54:08;;;;;;;36.20;3.80;;;7.00;99.90;;;;;;5064607;28;20175;-58
2022/11/10 03:56:34;;;;;;;76.93;6.33;;;6.90;99.90;;;;;;5055043;28;20700;-59
2022/11/10 03:59:00;;;;;;;59.00;7.10;;;6.80;99.90;;;;;;5064263;28;20183;-60
2022/11/10 04:01:25;;;;;;;21.13;6.17;;;6.80;99.90;;;;;;5065723;28;20671;-59
2022/11/10 04:03:51;;;;;;;18.27;6.73;;;6.70;99.90;;;;;;5064671;28;20317;-59
2022/11/10 04:09:01;;;;;;;32.13;3.57;;;6.80;99.90;;;;;;5099806;27;20196;-59
2022/11/10 04:16:57;;;;;;;113.00;7.07;;;6.90;99.90;;;;;;5108015;27;20453;-60
2022/11/10 04:19:23;;;;;;;29.10;4.30;;;6.90;99.90;;;;;;5103264;28;20521;-59
2022/11/10 04:21:49;;;;;;;67.37;5.57;;;6.90;99.90;;;;;;5100210;28;20180;-64
2022/11/10 04:24:14;;;;;;;88.43;7.53;;;6.90;99.90;;;;;;5096514;27;20276;-59
2022/11/10 04:26:41;;;;;;;26.73;5.03;;;7.00;99.90;;;;;;5101028;28;20284;-59
2022/11/10 04:29:10;;;;;;;47.53;6.23;;;7.00;99.90;;;;;;5111520;28;20204;-61
2022/11/10 04:31:38;;;;;;;71.90;7.43;;;7.00;99.90;;;;;;5102423;28;20435;-59
2022/11/10 04:34:05;;;;;;;49.53;5.50;;;7.00;99.90;;;;;;5101985;28;20432;-59
2022/11/10 04:36:33;;;;;;;8.13;3.10;;;7.00;99.90;;;;;;5093554;28;20463;-59
2022/11/10 04:38:59;;;;;;;16.87;4.10;;;7.10;99.90;;;;;;5104294;28;20435;-58
2022/11/10 04:41:27;;;;;;;47.83;5.23;;;7.00;99.90;;;;;;5111479;28;20525;-58
2022/11/10 04:43:52;;;;;;;132.87;7.93;;;7.00;99.90;;;;;;5107140;28;20188;-61
2022/11/10 04:46:29;;;;;;;116.20;6.33;;;7.00;99.90;;;;;;5109359;27;20447;-60
2022/11/10 04:48:56;;;;;;;43.43;5.90;;;6.90;99.90;;;;;;5101538;28;20209;-60
2022/11/10 04:51:25;;;;;;;24.87;3.80;;;6.90;99.90;;;;;;5107728;28;20439;-59
2022/11/10 04:53:50;;;;;;;5.40;2.27;;;6.90;99.90;;;;;;5101042;28;20438;-64
2022/11/10 04:56:18;;;;;;;27.83;3.13;;;6.90;99.90;;;;;;5101415;28;20458;-62
2022/11/10 04:58:44;;;;;;;14.00;2.57;;;6.90;99.90;;;;;;5097672;27;20181;-62
2022/11/10 05:01:11;;;;;;;35.80;4.57;;;6.80;99.90;;;;;;5095303;28;20424;-59
2022/11/10 05:03:37;;;;;;;56.93;4.17;;;6.80;99.90;;;;;;5096205;28;21211;-59
2022/11/10 05:06:04;;;;;;;237.90;10.63;;;6.80;99.90;;;;;;5091902;28;20423;-58
2022/11/10 05:08:29;;;;;;;88.50;4.33;;;6.70;99.90;;;;;;5099775;28;20599;-59
2022/11/10 05:10:55;;;;;;;51.43;5.10;;;6.60;99.90;;;;;;5092101;28;20509;-59
2022/11/10 05:13:21;;;;;;;15.10;2.80;;;6.60;99.90;;;;;;5091367;28;20233;-58
2022/11/10 05:15:46;;;;;;;14.83;3.23;;;6.60;99.90;;;;;;5090803;28;20902;-56
2022/11/10 05:18:12;;;;;;;13.60;4.07;;;6.60;99.90;;;;;;5088476;28;20220;-59
2022/11/10 05:20:37;;;;;;;30.57;4.17;;;6.60;99.90;;;;;;5093114;28;20260;-57
2022/11/10 05:25:47;;;;;;;40.37;5.23;;;6.60;99.90;;;;;;5098189;28;20212;-59
2022/11/10 05:28:15;;;;;;;22.63;4.37;;;6.70;99.90;;;;;;5098168;28;20976;-58
2022/11/10 05:30:41;;;;;;;72.93;6.23;;;6.70;99.90;;;;;;5101106;28;20169;-58
2022/11/10 05:33:06;;;;;;;55.70;5.43;;;6.70;99.90;;;;;;5100839;28;20540;-57
2022/11/10 05:35:33;;;;;;;120.40;6.40;;;6.70;99.90;;;;;;5099487;28;20227;-61
2022/11/10 05:37:59;;;;;;;87.87;8.70;;;6.70;99.90;;;;;;5089331;28;20447;-57
2022/11/10 05:40:25;;;;;;;16.10;4.00;;;6.70;99.90;;;;;;5089223;28;20424;-58
2022/11/10 05:42:54;;;;;;;48.07;5.27;;;6.70;99.90;;;;;;5088578;28;22542;-58
2022/11/10 05:45:22;;;;;;;29.60;4.73;;;6.70;99.90;;;;;;5094578;28;20424;-57
2022/11/10 05:47:48;;;;;;;38.40;4.70;;;6.70;99.90;;;;;;5105128;28;20516;-58
2022/11/10 05:50:14;;;;;;;24.30;4.90;;;6.70;99.90;;;;;;5105769;28;20428;-58
2022/11/10 05:52:49;;;;;;;21.10;4.17;;;6.70;99.90;;;;;;5100815;28;20492;-56
2022/11/10 05:55:16;;;;;;;138.43;7.97;;;6.70;99.90;;;;;;5106649;28;20459;-58
2022/11/10 05:57:44;;;;;;;72.23;6.20;;;6.70;99.90;;;;;;5107267;28;20451;-58
2022/11/10 06:00:11;;;;;;;161.50;10.00;;;6.70;99.90;;;;;;5106783;28;20476;-57
2022/11/10 06:02:36;;;;;;;67.90;5.80;;;6.70;99.90;;;;;;5099695;28;20900;-57
2022/11/10 06:05:03;;;;;;;45.50;5.40;;;6.60;99.90;;;;;;5095620;28;20463;-57
2022/11/10 06:07:28;;;;;;;39.13;4.73;;;6.60;99.90;;;;;;5099981;28;20253;-57
2022/11/10 06:09:54;;;;;;;25.53;4.93;;;6.50;99.90;;;;;;5098469;28;21051;-58
2022/11/10 06:12:20;;;;;;;70.80;5.80;;;6.50;99.90;;;;;;5102196;28;20829;-56
2022/11/10 06:14:46;;;;;;;32.07;4.13;;;6.50;99.90;;;;;;5104767;27;22136;-62
2022/11/10 06:17:13;;;;;;;45.83;5.43;;;6.50;99.90;;;;;;5105135;28;20466;-58
2022/11/10 06:19:38;;;;;;;41.43;4.40;;;6.50;99.90;;;;;;5112146;28;20458;-58
2022/11/10 06:22:04;;;;;;;51.67;6.07;;;6.50;99.90;;;;;;5100564;28;20810;-58
2022/11/10 06:24:30;;;;;;;126.13;9.00;;;6.50;99.90;;;;;;5099152;28;20270;-58
2022/11/10 06:26:55;;;;;;;54.37;5.83;;;6.50;99.90;;;;;;5104868;28;20201;-57
2022/11/10 06:29:21;;;;;;;24.13;4.47;;;6.50;99.90;;;;;;5111872;28;20510;-56
2022/11/10 06:31:47;;;;;;;102.87;8.20;;;6.40;99.90;;;;;;5107740;27;20611;-57
2022/11/10 06:34:12;;;;;;;23.60;5.67;;;6.40;99.90;;;;;;5109245;27;20185;-58
2022/11/10 06:36:39;;;;;;;49.13;6.60;;;6.40;99.90;;;;;;5102084;28;20292;-57
2022/11/10 06:39:05;;;;;;;31.37;6.03;;;6.40;99.90;;;;;;5099676;28;20661;-59
2022/11/10 06:41:32;;;;;;;55.33;5.80;;;6.40;99.90;;;;;;5106467;28;20527;-57
2022/11/10 06:43:58;;;;;;;55.13;4.57;;;6.40;99.90;;;;;;5100832;28;20438;-58
2022/11/10 06:46:24;;;;;;;78.93;8.10;;;6.50;99.90;;;;;;5102401;27;20458;-58
2022/11/10 06:48:50;;;;;;;90.67;6.77;;;6.40;99.90;;;;;;5102506;28;20249;-59
2022/11/10 06:51:16;;;;;;;81.80;8.87;;;6.40;99.90;;;;;;5088982;28;20866;-58
2022/11/10 06:53:42;;;;;;;195.03;12.53;;;6.30;99.90;;;;;;5098973;28;20173;-59
2022/11/10 06:56:07;;;;;;;172.63;11.87;;;6.30;99.90;;;;;;5108508;28;20458;-59
2022/11/10 06:58:33;;;;;;;67.73;7.30;;;6.30;99.90;;;;;;5113504;27;20710;-61
2022/11/10 07:01:00;;;;;;;48.53;8.20;;;6.30;99.90;;;;;;5104070;28;20232;-58
2022/11/10 07:03:27;;;;;;;134.10;10.57;;;6.30;99.90;;;;;;5108061;28;20868;-58
2022/11/10 07:05:53;;;;;;;55.70;8.80;;;6.30;99.90;;;;;;5102161;28;20423;-58
2022/11/10 07:08:19;;;;;;;33.20;6.20;;;6.30;99.90;;;;;;5098651;28;20949;-59
2022/11/10 07:10:51;;;;;;;47.30;6.53;;;6.40;99.90;;;;;;5105926;28;20186;-58
2022/11/10 07:13:17;;;;;;;83.67;7.30;;;6.40;99.90;;;;;;5103363;28;20273;-58
2022/11/10 07:15:43;;;;;;;21.87;6.37;;;6.40;99.90;;;;;;5103070;28;20455;-58
2022/11/10 07:18:08;;;;;;;35.80;6.40;;;6.40;99.90;;;;;;5110723;28;20951;-58
2022/11/10 07:20:34;;;;;;;66.37;7.00;;;6.50;99.90;;;;;;5108230;27;20181;-58
2022/11/10 07:23:02;;;;;;;148.03;10.37;;;6.50;99.90;;;;;;5096655;28;20605;-57
2022/11/10 07:25:30;;;;;;;149.93;10.10;;;6.50;99.90;;;;;;5104953;28;20180;-58
2022/11/10 07:27:59;;;;;;;89.10;8.33;;;6.40;99.90;;;;;;5101915;28;20442;-57
2022/11/10 07:30:26;;;;;;;154.40;10.40;;;6.40;99.90;;;;;;5098300;27;20929;-58
2022/11/10 07:33:13;;;;;;;61.30;7.37;;;6.40;99.90;;;;;;5086130;28;20948;-57
2022/11/10 07:35:39;;;;;;;177.27;10.33;;;6.40;99.90;;;;;;5105900;28;20545;-58
2022/11/10 07:38:13;;;;;;;47.93;7.03;;;6.40;99.90;;;;;;5110500;28;20964;-58
2022/11/10 07:40:39;;;;;;;60.87;8.17;;;6.40;99.90;;;;;;5104711;27;20963;-58
2022/11/10 07:43:05;;;;;;;103.03;9.30;;;6.50;99.90;;;;;;5106140;28;20431;-57
2022/11/10 07:45:31;;;;;;;194.50;11.03;;;6.40;99.90;;;;;;5100720;28;20545;-61
2022/11/10 07:48:03;;;;;;;54.00;8.37;;;6.40;99.90;;;;;;5107452;28;20228;-58
2022/11/10 07:50:30;;;;;;;112.77;8.33;;;6.40;99.90;;;;;;5103475;28;20430;-58
2022/11/10 07:53:10;;;;;;;45.00;7.53;;;6.50;99.90;;;;;;5103275;28;20812;-58
2022/11/10 07:55:38;;;;;;;107.63;10.37;;;6.50;99.90;;;;;;5105395;28;20459;-58
2022/11/10 07:58:04;;;;;;;92.17;9.63;;;6.50;99.90;;;;;;5084816;28;20443;-59
2022/11/10 08:00:30;;;;;;;50.07;9.40;;;6.50;99.90;;;;;;5106431;27;20431;-61
2022/11/10 08:03:05;;;;;;;29.37;8.73;;;6.60;99.90;;;;;;5108519;28;20479;-57
2022/11/10 08:05:31;;;;;;;77.60;10.27;;;6.60;99.90;;;;;;5107483;28;20437;-58
2022/11/10 08:07:57;;;;;;;48.03;8.63;;;6.60;99.90;;;;;;5100787;28;20475;-61
2022/11/10 08:10:22;;;;;;;59.83;10.70;;;6.70;99.90;;;;;;5101153;28;20438;-58
2022/11/10 08:12:56;;;;;;;104.27;11.70;;;6.70;99.90;;;;;;5098486;27;20227;-59
2022/11/10 08:15:23;;;;;;;120.80;11.27;;;6.80;99.90;;;;;;5100948;28;20211;-59
2022/11/10 08:17:49;;;;;;;136.03;12.77;;;6.70;99.90;;;;;;5104492;28;20450;-59
2022/11/10 08:20:15;;;;;;;58.43;10.33;;;6.80;99.90;;;;;;5098894;28;20439;-59
2022/11/10 08:22:42;;;;;;;48.63;9.20;;;6.70;99.90;;;;;;5089272;28;20211;-59
2022/11/10 08:25:07;;;;;;;55.77;9.27;;;6.80;99.90;;;;;;5097864;27;20518;-59
2022/11/10 08:27:33;;;;;;;106.93;10.50;;;6.80;99.90;;;;;;5100205;28;20889;-59
2022/11/10 08:29:59;;;;;;;116.07;11.47;;;6.80;99.90;;;;;;5094965;28;20620;-60
2022/11/10 08:32:25;;;;;;;57.27;7.60;;;6.80;99.90;;;;;;5102609;28;20177;-58
2022/11/10 08:34:51;;;;;;;58.87;8.67;;;6.80;99.90;;;;;;5101188;28;20192;-56
2022/11/10 08:37:16;;;;;;;42.50;7.80;;;6.70;99.90;;;;;;5097354;28;20247;-59
2022/11/10 08:39:42;;;;;;;34.73;8.07;;;6.80;99.90;;;;;;5096335;28;20462;-58
2022/11/10 08:42:08;;;;;;;51.83;8.70;;;6.80;99.90;;;;;;5102056;28;20531;-57
2022/11/10 08:44:33;;;;;;;87.87;9.23;;;6.80;99.90;;;;;;5102545;28;20587;-59
2022/11/10 08:46:59;;;;;;;42.50;8.47;;;6.90;99.90;;;;;;5105170;28;20208;-58
2022/11/10 08:49:25;;;;;;;51.93;8.03;;;6.90;99.90;;;;;;5108305;27;20202;-59
2022/11/10 08:51:50;;;;;;;17.50;7.57;;;7.00;99.90;;;;;;5108997;28;20178;-58
2022/11/10 08:54:16;;;;;;;29.20;8.10;;;7.00;99.90;;;;;;5103064;28;20531;-58
2022/11/10 08:56:41;;;;;;;66.40;8.27;;;7.10;99.90;;;;;;5104827;28;20216;-58
2022/11/10 08:59:07;;;;;;;94.57;9.33;;;7.10;99.90;;;;;;5102235;28;20176;-59
2022/11/10 09:01:33;;;;;;;42.73;7.03;;;7.20;99.90;;;;;;5110382;28;20173;-58
2022/11/10 09:03:58;;;;;;;47.77;9.20;;;7.20;99.90;;;;;;5098291;28;20648;-58
2022/11/10 09:06:24;;;;;;;61.20;7.03;;;7.30;99.90;;;;;;5100243;28;20273;-58
2022/11/10 09:08:50;;;;;;;39.70;8.07;;;7.30;99.90;;;;;;5106500;28;20286;-57
2022/11/10 09:11:15;;;;;;;40.67;8.20;;;7.30;99.90;;;;;;5105646;27;20735;-57
2022/11/10 09:13:41;;;;;;;55.57;7.17;;;7.30;99.90;;;;;;5103358;28;22111;-57
2022/11/10 09:16:07;;;;;;;31.93;6.83;;;7.40;99.90;;;;;;5082417;28;20193;-55
2022/11/10 09:18:32;;;;;;;28.03;7.30;;;7.40;99.90;;;;;;5099058;28;20170;-58
2022/11/10 09:20:58;;;;;;;18.93;7.43;;;7.50;99.90;;;;;;5098264;28;20421;-60
2022/11/10 09:23:25;;;;;;;30.93;8.27;;;7.50;99.90;;;;;;5104331;28;20173;-58
2022/11/10 09:25:53;;;;;;;14.07;6.00;;;7.60;99.90;;;;;;5106469;28;20183;-56
2022/11/10 09:28:20;;;;;;;19.47;5.50;;;7.70;99.90;;;;;;5103199;28;20439;-57
2022/11/10 09:30:47;;;;;;;8.60;4.53;;;7.80;99.90;;;;;;5099010;28;20644;-58
2022/11/10 09:33:14;;;;;;;25.53;6.37;;;7.80;99.90;;;;;;5100016;28;20815;-57
2022/11/10 09:35:39;;;;;;;17.53;5.53;;;7.80;99.90;;;;;;5105512;28;20465;-57
2022/11/10 09:38:05;;;;;;;22.60;6.70;;;7.80;99.90;;;;;;5100188;28;20544;-57
2022/11/10 09:41:01;;;;;;;18.40;6.10;;;7.80;99.90;;;;;;5097318;28;20174;-58
2022/11/10 09:44:01;;;;;;;26.00;6.40;;;7.80;99.90;;;;;;5101653;28;20255;-59
2022/11/10 09:46:34;;;;;;;11.43;5.50;;;7.80;99.90;;;;;;5104091;28;20453;-58
2022/11/10 09:49:17;;;;;;;14.87;5.37;;;7.80;99.90;;;;;;5107781;28;20426;-58
2022/11/10 09:51:44;;;;;;;36.20;11.70;;;7.90;99.90;;;;;;5103825;28;20435;-59
2022/11/10 09:54:40;;;;;;;28.10;10.57;;;8.00;99.90;;;;;;5098944;28;20514;-57
2022/11/10 09:57:10;;;;;;;20.90;8.30;;;8.10;99.90;;;;;;5103847;28;20550;-59
2022/11/10 09:59:35;;;;;;;76.73;7.53;;;8.10;99.90;;;;;;5100673;28;20945;-59
2022/11/10 10:02:03;;;;;;;17.17;6.80;;;8.20;99.90;;;;;;5106807;28;20445;-58
2022/11/10 10:05:06;;;;;;;30.80;7.83;;;8.10;99.90;;;;;;5104984;28;20560;-58
2022/11/10 10:07:38;;;;;;;33.77;12.20;;;8.10;99.90;;;;;;5118272;22;20485;-59
2022/11/10 10:10:28;;;;;;;33.70;11.40;;;8.10;99.90;;;;;;5110730;27;20431;-59
2022/11/10 10:13:03;;;;;;;27.23;10.20;;;8.20;99.90;;;;;;5105956;27;20426;-59
2022/11/10 10:15:34;;;;;;;32.60;9.70;;;8.20;99.90;;;;;;5111616;27;20478;-59
2022/11/10 10:18:16;;;;;;;31.17;9.43;;;8.30;99.90;;;;;;5099803;28;20475;-59
2022/11/10 10:21:03;;;;;;;27.97;10.47;;;8.30;99.90;;;;;;5089552;28;20419;-59
2022/11/10 10:23:49;;;;;;;22.10;10.67;;;8.30;99.90;;;;;;5091759;28;20453;-56
2022/11/10 10:26:17;;;;;;;27.03;11.90;;;8.30;99.90;;;;;;5080469;28;20931;-58
2022/11/10 10:28:47;;;;;;;28.07;10.20;;;8.40;99.90;;;;;;5068362;28;20487;-58
2022/11/10 10:31:18;;;;;;;26.13;11.10;;;8.40;99.90;;;;;;5094047;28;20527;-58
2022/11/10 10:33:45;;;;;;;51.43;11.77;;;8.50;99.90;;;;;;5092280;28;20420;-59
2022/11/10 10:36:30;;;;;;;22.30;9.67;;;8.60;99.90;;;;;;5089765;28;20448;-59
2022/11/10 10:39:01;;;;;;;21.80;9.67;;;8.70;99.90;;;;;;5082160;28;20485;-59
2022/11/10 10:41:29;;;;;;;23.53;10.03;;;8.70;99.90;;;;;;5093039;28;20457;-59
2022/11/10 10:44:01;;;;;;;23.00;9.87;;;8.80;99.90;;;;;;5086044;28;20436;-59
2022/11/10 10:46:28;;;;;;;20.40;9.03;;;8.90;99.90;;;;;;5090536;28;20435;-59
2022/11/10 10:49:22;;;;;;;19.47;9.60;;;9.00;99.90;;;;;;5089336;28;20488;-58
2022/11/10 10:51:51;;;;;;;22.77;9.13;;;9.10;99.90;;;;;;5081545;28;20463;-59
2022/11/10 10:54:30;;;;;;;19.13;9.93;;;9.20;99.90;;;;;;5088294;28;20477;-59
2022/11/10 10:57:21;;;;;;;31.20;10.50;;;9.20;99.90;;;;;;5080778;28;20498;-59
2022/11/10 10:59:47;;;;;;;22.73;9.27;;;9.30;99.90;;;;;;5067014;28;20787;-59
2022/11/10 11:02:39;;;;;;;21.27;9.60;;;9.40;99.90;;;;;;5069328;28;20425;-60
2022/11/10 11:05:14;;;;;;;18.03;8.47;;;9.40;99.90;;;;;;5082567;28;20897;-59
2022/11/10 11:07:40;;;;;;;21.50;8.80;;;9.60;99.90;;;;;;5086511;28;21016;-60
2022/11/10 11:10:21;;;;;;;16.87;8.10;;;9.80;99.90;;;;;;5090802;28;20419;-59
2022/11/10 11:12:47;;;;;;;17.83;9.10;;;9.90;99.90;;;;;;5085975;28;20436;-60
2022/11/10 11:15:21;;;;;;;18.80;9.90;;;10.10;99.90;;;;;;5082563;28;21009;-60
2022/11/10 11:17:58;;;;;;;38.60;11.80;;;10.30;99.90;;;;;;5086246;28;20272;-59
2022/11/10 11:20:48;;;;;;;27.63;10.50;;;10.50;99.90;;;;;;5082844;28;20519;-59
2022/11/10 11:23:41;;;;;;;35.40;12.30;;;10.50;99.90;;;;;;5083749;28;20432;-59
2022/11/10 11:26:32;;;;;;;37.90;13.20;;;10.50;99.90;;;;;;5090982;28;20960;-59
2022/11/10 11:29:25;;;;;;;62.10;18.60;;;10.70;99.90;;;;;;5084239;28;20457;-59
2022/11/10 11:32:08;;;;;;;57.93;19.00;;;10.90;99.90;;;;;;5091689;28;20461;-60
2022/11/10 11:34:44;;;;;;;43.20;14.93;;;11.10;99.90;;;;;;5091866;28;20921;-59
2022/11/10 11:37:16;;;;;;;39.00;14.03;;;11.30;99.90;;;;;;5075080;28;20435;-59
2022/11/10 11:40:05;;;;;;;33.90;11.57;;;11.40;99.90;;;;;;5077103;28;20908;-59
2022/11/10 11:42:49;;;;;;;26.60;10.27;;;11.60;99.90;;;;;;5087424;28;20420;-59
2022/11/10 11:45:36;;;;;;;26.67;8.40;;;11.70;99.90;;;;;;5083800;28;20464;-60
2022/11/10 11:48:32;;;;;;;29.63;9.03;;;11.90;99.90;;;;;;5082202;28;20448;-61
2022/11/10 11:51:10;;;;;;;18.83;8.43;;;12.20;99.90;;;;;;5088889;28;20432;-60
2022/11/10 11:53:55;;;;;;;17.63;6.93;;;12.30;99.90;;;;;;5079797;28;20432;-59
2022/11/10 11:56:40;;;;;;;11.73;5.53;;;12.30;99.90;;;;;;5080459;28;20459;-58
2022/11/10 11:59:40;;;;;;;13.83;5.40;;;12.50;99.90;;;;;;5071059;28;20478;-60
2022/11/10 12:02:22;;;;;;;9.10;3.93;;;12.70;99.90;;;;;;5076459;28;20444;-59
2022/11/10 12:05:22;;;;;;;8.23;3.90;;;13.10;99.90;;;;;;5082879;28;20514;-55
2022/11/10 12:08:18;;;;;;;8.90;3.37;;;13.20;99.90;;;;;;5083486;28;20510;-60
2022/11/10 12:11:17;;;;;;;6.67;3.20;;;13.40;99.90;;;;;;5089741;28;20472;-60
2022/11/10 12:14:19;;;;;;;4.57;2.57;;;13.60;99.90;;;;;;5080399;28;20424;-59
2022/11/10 12:16:56;;;;;;;5.97;3.00;;;13.70;99.90;;;;;;5083292;28;20459;-59
2022/11/10 12:20:00;;;;;;;11.63;3.30;;;13.30;99.90;;;;;;5080847;28;20425;-60
2022/11/10 12:22:45;;;;;;;4.87;3.13;;;12.90;99.90;;;;;;5050312;28;20423;-59
2022/11/10 12:25:33;;;;;;;6.33;2.53;;;12.50;99.90;;;;;;5064823;28;20515;-61
2022/11/10 12:28:20;;;;;;;11.03;2.70;;;12.20;99.90;;;;;;5070341;28;20544;-61
2022/11/10 12:30:48;;;;;;;7.10;2.17;;;12.00;99.90;;;;;;5079345;28;20508;-60
2022/11/10 12:33:34;;;;;;;6.37;2.70;;;11.80;99.90;;;;;;5078290;28;20435;-60
2022/11/10 12:36:04;;;;;;;7.93;3.53;;;11.70;99.90;;;;;;5066336;28;20455;-59
2022/11/10 12:38:45;;;;;;;8.50;3.00;;;11.60;99.90;;;;;;5082987;28;20454;-60
2022/11/10 12:41:15;;;;;;;6.40;3.60;;;11.60;99.90;;;;;;5083033;28;20926;-60
2022/11/10 12:44:04;;;;;;;5.13;2.80;;;11.60;99.90;;;;;;5087354;28;20416;-59
2022/11/10 12:46:29;;;;;;;6.03;2.60;;;11.70;99.90;;;;;;5088654;28;20448;-60
2022/11/10 12:49:13;;;;;;;6.50;2.50;;;11.70;99.90;;;;;;5072217;28;20467;-60
2022/11/10 12:51:56;;;;;;;7.60;2.77;;;11.70;99.90;;;;;;5081226;28;20279;-59
2022/11/10 12:54:25;;;;;;;12.30;2.60;;;11.90;99.90;;;;;;5079272;28;20460;-59
2022/11/10 12:57:02;;;;;;;4.90;2.60;;;12.00;99.90;;;;;;5081227;28;20539;-59
2022/11/10 12:59:29;;;;;;;8.60;2.77;;;12.00;99.90;;;;;;5081204;28;20486;-59
2022/11/10 13:02:18;;;;;;;3.70;2.17;;;12.10;99.90;;;;;;5081945;28;20507;-59
2022/11/10 13:04:44;;;;;;;4.93;2.50;;;12.10;99.90;;;;;;5089296;28;20435;-59
2022/11/10 13:07:10;;;;;;;3.70;2.27;;;11.90;99.90;;;;;;5085954;28;20426;-59
2022/11/10 13:09:40;;;;;;;5.67;2.27;;;11.90;99.90;;;;;;5084026;28;20683;-59
2022/11/10 13:12:35;;;;;;;4.30;2.03;;;12.00;99.90;;;;;;5075593;28;20435;-59
2022/11/10 13:15:00;;;;;;;1.77;1.63;;;12.00;99.90;;;;;;5059791;28;20814;-59
2022/11/10 13:17:27;;;;;;;4.93;2.10;;;12.10;99.90;;;;;;5072269;28;21039;-59